sensor_id;sensor_type;location;lat;lon;timestamp;temperature;humidity
27200;DHT22;14714;48.106;11.546;2022-09-16T00:00:23;14.00;99.90
27200;DHT22;14714;48.106;11.546;2022-09-16T00:02:50;14.00;99.90
27200;DHT22;14714;48.106;11.546;2022-09-16T00:05:17;14.00;99.90
27200;DHT22;14714;48.106;11.546;2022-09-16T00:07:44;14.00;99.90
27200;DHT22;14714;48.106;11.546;2022-09-16T00:10:11;14.00;99.90
27200;DHT22;14714;48.106;11.546;2022-09-16T00:12:38;14.00;99.90
27200;DHT22;14714;48.106;11.546;2022-09-16T00:15:05;14.00;99.90
27200;DHT22;14714;48.106;11.546;2022-09-16T00:17:33;14.00;99.90
27200;DHT22;14714;48.106;11.546;2022-09-16T00:20:00;13.90;99.90
27200;DHT22;14714;48.106;11.546;2022-09-16T00:22:27;13.90;99.90
27200;DHT22;14714;48.106;11.546;2022-09-16T00:24:54;13.90;99.90
27200;DHT22;14714;48.106;11.546;2022-09-16T00:27:20;13.90;99.90
27200;DHT22;14714;48.106;11.546;2022-09-16T00:29:47;13.90;99.90
27200;DHT22;14714;48.106;11.546;2022-09-16T00:32:13;13.90;99.90
27200;DHT22;14714;48.106;11.546;2022-09-16T00:34:40;13.90;99.90
27200;DHT22;14714;48.106;11.546;2022-09-16T00:37:07;13.90;99.90
27200;DHT22;14714;48.106;11.546;2022-09-16T00:39:35;13.90;99.90
27200;DHT22;14714;48.106;11.546;2022-09-16T00:42:03;13.90;99.90
27200;DHT22;14714;48.106;11.546;2022-09-16T00:47:17;13.90;99.90
27200;DHT22;14714;48.106;11.546;2022-09-16T00:49:45;14.00;99.90
27200;DHT22;14714;48.106;11.546;2022-09-16T00:52:12;13.90;99.90
27200;DHT22;14714;48.106;11.546;2022-09-16T00:54:39;13.90;99.90
27200;DHT22;14714;48.106;11.546;2022-09-16T00:57:06;13.90;99.90
27200;DHT22;14714;48.106;11.546;2022-09-16T00:59:34;13.90;99.90
27200;DHT22;14714;48.106;11.546;2022-09-16T01:02:04;13.90;99.90
27200;DHT22;14714;48.106;11.546;2022-09-16T01:04:34;13.90;99.90
27200;DHT22;14714;48.106;11.546;2022-09-16T01:07:02;13.90;99.90
27200;DHT22;14714;48.106;11.546;2022-09-16T01:09:29;13.80;99.90
27200;DHT22;14714;48.106;11.546;2022-09-16T01:11:56;13.70;99.90
27200;DHT22;14714;48.106;11.546;2022-09-16T01:14:23;13.70;99.90
27200;DHT22;14714;48.106;11.546;2022-09-16T01:27:50;13.60;99.90
27200;DHT22;14714;48.106;11.546;2022-09-16T01:30:36;13.50;99.90
27200;DHT22;14714;48.106;11.546;2022-09-16T01:41:17;13.50;99.90
27200;DHT22;14714;48.106;11.546;2022-09-16T01:43:49;13.50;99.90
27200;DHT22;14714;48.106;11.546;2022-09-16T01:51:40;13.30;99.90
27200;DHT22;14714;48.106;11.546;2022-09-16T01:54:12;13.30;99.90
27200;DHT22;14714;48.106;11.546;2022-09-16T01:57:01;13.30;99.90
27200;DHT22;14714;48.106;11.546;2022-09-16T02:02:05;13.30;99.90
27200;DHT22;14714;48.106;11.546;2022-09-16T02:04:36;13.30;99.90
27200;DHT22;14714;48.106;11.546;2022-09-16T02:07:05;13.30;99.90
27200;DHT22;14714;48.106;11.546;2022-09-16T02:09:34;13.30;99.90
27200;DHT22;14714;48.106;11.546;2022-09-16T02:12:03;13.30;99.90
27200;DHT22;14714;48.106;11.546;2022-09-16T02:14:32;13.40;99.90
27200;DHT22;14714;48.106;11.546;2022-09-16T02:17:00;13.40;99.90
27200;DHT22;14714;48.106;11.546;2022-09-16T02:19:30;13.40;99.90
27200;DHT22;14714;48.106;11.546;2022-09-16T02:22:00;13.40;99.90
27200;DHT22;14714;48.106;11.546;2022-09-16T02:24:28;13.40;99.90
27200;DHT22;14714;48.106;11.546;2022-09-16T02:26:57;13.40;99.90
27200;DHT22;14714;48.106;11.546;2022-09-16T02:29:27;13.50;99.90
27200;DHT22;14714;48.106;11.546;2022-09-16T02:31:55;13.50;99.90
27200;DHT22;14714;48.106;11.546;2022-09-16T02:34:25;13.50;99.90
27200;DHT22;14714;48.106;11.546;2022-09-16T02:36:54;13.50;99.90
27200;DHT22;14714;48.106;11.546;2022-09-16T02:39:25;13.50;99.90
27200;DHT22;14714;48.106;11.546;2022-09-16T02:41:52;13.60;99.90
27200;DHT22;14714;48.106;11.546;2022-09-16T02:44:20;13.60;99.90
27200;DHT22;14714;48.106;11.546;2022-09-16T02:46:51;13.60;99.90
27200;DHT22;14714;48.106;11.546;2022-09-16T02:56:42;13.70;99.90
27200;DHT22;14714;48.106;11.546;2022-09-16T02:59:09;13.60;99.90
27200;DHT22;14714;48.106;11.546;2022-09-16T03:01:38;13.70;99.90
27200;DHT22;14714;48.106;11.546;2022-09-16T03:04:07;13.60;99.90
27200;DHT22;14714;48.106;11.546;2022-09-16T03:06:34;13.60;99.90
27200;DHT22;14714;48.106;11.546;2022-09-16T03:09:02;13.60;99.90
27200;DHT22;14714;48.106;11.546;2022-09-16T03:11:34;13.60;99.90
27200;DHT22;14714;48.106;11.546;2022-09-16T03:30:22;13.70;99.90
27200;DHT22;14714;48.106;11.546;2022-09-16T03:32:53;13.70;99.90
27200;DHT22;14714;48.106;11.546;2022-09-16T03:37:52;13.70;99.90
27200;DHT22;14714;48.106;11.546;2022-09-16T03:40:20;13.60;99.90
27200;DHT22;14714;48.106;11.546;2022-09-16T03:42:47;13.70;99.90
27200;DHT22;14714;48.106;11.546;2022-09-16T03:45:15;13.60;99.90
27200;DHT22;14714;48.106;11.546;2022-09-16T03:47:45;13.60;99.90
27200;DHT22;14714;48.106;11.546;2022-09-16T03:50:13;13.60;99.90
27200;DHT22;14714;48.106;11.546;2022-09-16T03:52:39;13.60;99.90
27200;DHT22;14714;48.106;11.546;2022-09-16T03:55:06;13.50;99.90
27200;DHT22;14714;48.106;11.546;2022-09-16T03:57:33;13.50;99.90
27200;DHT22;14714;48.106;11.546;2022-09-16T04:00:00;13.50;99.90
27200;DHT22;14714;48.106;11.546;2022-09-16T04:02:27;13.40;99.90
27200;DHT22;14714;48.106;11.546;2022-09-16T04:04:53;13.40;99.90
27200;DHT22;14714;48.106;11.546;2022-09-16T04:07:20;13.40;99.90
27200;DHT22;14714;48.106;11.546;2022-09-16T04:09:46;13.40;99.90
27200;DHT22;14714;48.106;11.546;2022-09-16T04:12:13;13.30;99.90
27200;DHT22;14714;48.106;11.546;2022-09-16T04:14:40;13.30;99.90
27200;DHT22;14714;48.106;11.546;2022-09-16T04:17:07;13.30;99.90
27200;DHT22;14714;48.106;11.546;2022-09-16T04:19:33;13.30;99.90
27200;DHT22;14714;48.106;11.546;2022-09-16T04:22:00;13.30;99.90
27200;DHT22;14714;48.106;11.546;2022-09-16T04:24:26;13.30;99.90
27200;DHT22;14714;48.106;11.546;2022-09-16T04:26:53;13.30;99.90
27200;DHT22;14714;48.106;11.546;2022-09-16T04:29:20;13.30;99.90
27200;DHT22;14714;48.106;11.546;2022-09-16T04:31:46;13.30;99.90
27200;DHT22;14714;48.106;11.546;2022-09-16T04:34:13;13.30;99.90
27200;DHT22;14714;48.106;11.546;2022-09-16T04:36:40;13.30;99.90
27200;DHT22;14714;48.106;11.546;2022-09-16T04:39:06;13.30;99.90
27200;DHT22;14714;48.106;11.546;2022-09-16T04:41:33;13.30;99.90
27200;DHT22;14714;48.106;11.546;2022-09-16T04:44:00;13.30;99.90
27200;DHT22;14714;48.106;11.546;2022-09-16T04:46:28;13.40;99.90
27200;DHT22;14714;48.106;11.546;2022-09-16T04:48:55;13.40;99.90
27200;DHT22;14714;48.106;11.546;2022-09-16T04:51:22;13.40;99.90
27200;DHT22;14714;48.106;11.546;2022-09-16T04:53:49;13.40;99.90
27200;DHT22;14714;48.106;11.546;2022-09-16T04:56:17;13.40;99.90
27200;DHT22;14714;48.106;11.546;2022-09-16T04:58:44;13.50;99.90
27200;DHT22;14714;48.106;11.546;2022-09-16T05:01:12;13.50;99.90
27200;DHT22;14714;48.106;11.546;2022-09-16T05:03:40;13.50;99.90
27200;DHT22;14714;48.106;11.546;2022-09-16T05:06:09;13.50;99.90
27200;DHT22;14714;48.106;11.546;2022-09-16T05:08:36;13.50;99.90
27200;DHT22;14714;48.106;11.546;2022-09-16T05:11:04;13.50;99.90
27200;DHT22;14714;48.106;11.546;2022-09-16T05:13:31;13.50;99.90
27200;DHT22;14714;48.106;11.546;2022-09-16T05:16:04;13.50;99.90
27200;DHT22;14714;48.106;11.546;2022-09-16T05:18:31;13.50;99.90
27200;DHT22;14714;48.106;11.546;2022-09-16T05:20:59;13.50;99.90
27200;DHT22;14714;48.106;11.546;2022-09-16T05:23:26;13.50;99.90
27200;DHT22;14714;48.106;11.546;2022-09-16T05:25:52;13.60;99.90
27200;DHT22;14714;48.106;11.546;2022-09-16T05:28:19;13.50;99.90
27200;DHT22;14714;48.106;11.546;2022-09-16T05:30:46;13.60;99.90
27200;DHT22;14714;48.106;11.546;2022-09-16T05:33:13;13.60;99.90
27200;DHT22;14714;48.106;11.546;2022-09-16T05:35:39;13.60;99.90
27200;DHT22;14714;48.106;11.546;2022-09-16T05:38:07;13.60;99.90
27200;DHT22;14714;48.106;11.546;2022-09-16T05:40:33;13.60;99.90
27200;DHT22;14714;48.106;11.546;2022-09-16T05:43:00;13.60;99.90
27200;DHT22;14714;48.106;11.546;2022-09-16T05:45:27;13.60;99.90
27200;DHT22;14714;48.106;11.546;2022-09-16T05:47:58;13.60;99.90
27200;DHT22;14714;48.106;11.546;2022-09-16T05:50:24;13.60;99.90
27200;DHT22;14714;48.106;11.546;2022-09-16T05:52:51;13.50;99.90
27200;DHT22;14714;48.106;11.546;2022-09-16T05:55:17;13.50;99.90
27200;DHT22;14714;48.106;11.546;2022-09-16T05:57:44;13.50;99.90
27200;DHT22;14714;48.106;11.546;2022-09-16T06:00:11;13.60;99.90
27200;DHT22;14714;48.106;11.546;2022-09-16T06:02:38;13.60;99.90
27200;DHT22;14714;48.106;11.546;2022-09-16T06:05:05;13.60;99.90
27200;DHT22;14714;48.106;11.546;2022-09-16T06:07:31;13.80;99.90
27200;DHT22;14714;48.106;11.546;2022-09-16T06:09:58;13.90;99.90
27200;DHT22;14714;48.106;11.546;2022-09-16T06:12:25;14.10;99.90
27200;DHT22;14714;48.106;11.546;2022-09-16T06:14:51;14.20;99.90
27200;DHT22;14714;48.106;11.546;2022-09-16T06:17:18;14.30;99.90
27200;DHT22;14714;48.106;11.546;2022-09-16T06:19:45;14.40;99.90
27200;DHT22;14714;48.106;11.546;2022-09-16T06:22:11;14.50;99.90
27200;DHT22;14714;48.106;11.546;2022-09-16T06:24:38;14.50;99.90
27200;DHT22;14714;48.106;11.546;2022-09-16T06:27:04;14.60;99.90
27200;DHT22;14714;48.106;11.546;2022-09-16T06:29:31;14.60;99.90
27200;DHT22;14714;48.106;11.546;2022-09-16T06:31:58;14.70;99.90
27200;DHT22;14714;48.106;11.546;2022-09-16T06:34:24;14.70;99.90
27200;DHT22;14714;48.106;11.546;2022-09-16T06:36:52;14.80;99.90
27200;DHT22;14714;48.106;11.546;2022-09-16T06:39:18;14.80;99.90
27200;DHT22;14714;48.106;11.546;2022-09-16T06:41:45;14.90;99.90
27200;DHT22;14714;48.106;11.546;2022-09-16T06:44:12;14.90;99.90
27200;DHT22;14714;48.106;11.546;2022-09-16T06:46:38;14.90;99.90
27200;DHT22;14714;48.106;11.546;2022-09-16T06:49:05;15.00;99.90
27200;DHT22;14714;48.106;11.546;2022-09-16T06:51:32;14.90;99.90
27200;DHT22;14714;48.106;11.546;2022-09-16T06:54:04;15.00;99.90
27200;DHT22;14714;48.106;11.546;2022-09-16T06:56:31;15.00;99.90
27200;DHT22;14714;48.106;11.546;2022-09-16T06:58:59;15.10;99.90
27200;DHT22;14714;48.106;11.546;2022-09-16T07:01:27;15.10;99.90
27200;DHT22;14714;48.106;11.546;2022-09-16T07:03:54;15.10;99.90
27200;DHT22;14714;48.106;11.546;2022-09-16T07:06:23;15.10;99.90
27200;DHT22;14714;48.106;11.546;2022-09-16T07:09:09;15.10;99.90
27200;DHT22;14714;48.106;11.546;2022-09-16T07:11:36;15.10;99.90
27200;DHT22;14714;48.106;11.546;2022-09-16T07:14:03;15.10;99.90
27200;DHT22;14714;48.106;11.546;2022-09-16T07:16:30;15.10;99.90
27200;DHT22;14714;48.106;11.546;2022-09-16T07:18:57;15.10;99.90
27200;DHT22;14714;48.106;11.546;2022-09-16T07:21:27;15.20;99.90
27200;DHT22;14714;48.106;11.546;2022-09-16T07:23:56;15.20;99.90
27200;DHT22;14714;48.106;11.546;2022-09-16T07:26:24;15.30;99.90
27200;DHT22;14714;48.106;11.546;2022-09-16T07:28:52;15.40;99.90
27200;DHT22;14714;48.106;11.546;2022-09-16T07:31:23;15.40;99.90
27200;DHT22;14714;48.106;11.546;2022-09-16T07:33:51;15.40;99.90
27200;DHT22;14714;48.106;11.546;2022-09-16T07:36:22;15.50;99.90
27200;DHT22;14714;48.106;11.546;2022-09-16T07:38:49;15.50;99.90
27200;DHT22;14714;48.106;11.546;2022-09-16T07:41:20;15.60;99.90
27200;DHT22;14714;48.106;11.546;2022-09-16T07:43:48;15.60;99.90
27200;DHT22;14714;48.106;11.546;2022-09-16T07:46:16;15.50;99.90
27200;DHT22;14714;48.106;11.546;2022-09-16T07:48:44;15.60;99.90
27200;DHT22;14714;48.106;11.546;2022-09-16T07:51:15;15.60;99.90
27200;DHT22;14714;48.106;11.546;2022-09-16T07:53:42;15.60;99.90
27200;DHT22;14714;48.106;11.546;2022-09-16T07:56:14;15.50;99.90
27200;DHT22;14714;48.106;11.546;2022-09-16T07:58:40;15.50;99.90
27200;DHT22;14714;48.106;11.546;2022-09-16T08:01:07;15.40;99.90
27200;DHT22;14714;48.106;11.546;2022-09-16T08:03:35;15.40;99.90
27200;DHT22;14714;48.106;11.546;2022-09-16T08:06:02;15.30;99.90
27200;DHT22;14714;48.106;11.546;2022-09-16T08:08:29;15.30;99.90
27200;DHT22;14714;48.106;11.546;2022-09-16T08:10:57;15.40;99.90
27200;DHT22;14714;48.106;11.546;2022-09-16T08:13:25;15.40;99.90
27200;DHT22;14714;48.106;11.546;2022-09-16T08:15:52;15.50;99.90
27200;DHT22;14714;48.106;11.546;2022-09-16T08:18:18;15.60;99.90
27200;DHT22;14714;48.106;11.546;2022-09-16T08:20:45;15.60;99.90
27200;DHT22;14714;48.106;11.546;2022-09-16T08:23:12;15.70;99.90
27200;DHT22;14714;48.106;11.546;2022-09-16T08:25:39;15.80;99.90
27200;DHT22;14714;48.106;11.546;2022-09-16T08:28:11;15.80;99.90
27200;DHT22;14714;48.106;11.546;2022-09-16T08:30:38;15.80;99.90
27200;DHT22;14714;48.106;11.546;2022-09-16T08:33:05;15.90;99.90
27200;DHT22;14714;48.106;11.546;2022-09-16T08:35:31;15.90;99.90
27200;DHT22;14714;48.106;11.546;2022-09-16T08:37:58;15.90;99.90
27200;DHT22;14714;48.106;11.546;2022-09-16T08:40:25;16.00;99.90
27200;DHT22;14714;48.106;11.546;2022-09-16T08:42:58;16.00;99.90
27200;DHT22;14714;48.106;11.546;2022-09-16T08:50:27;16.20;99.90
27200;DHT22;14714;48.106;11.546;2022-09-16T08:52:55;16.40;99.90
27200;DHT22;14714;48.106;11.546;2022-09-16T08:55:24;16.40;99.90
27200;DHT22;14714;48.106;11.546;2022-09-16T08:57:56;16.40;99.90
27200;DHT22;14714;48.106;11.546;2022-09-16T09:00:24;16.40;99.90
27200;DHT22;14714;48.106;11.546;2022-09-16T09:05:57;16.50;99.90
27200;DHT22;14714;48.106;11.546;2022-09-16T09:10:54;16.60;99.90
27200;DHT22;14714;48.106;11.546;2022-09-16T09:14:00;16.60;99.90
27200;DHT22;14714;48.106;11.546;2022-09-16T09:16:22;16.60;99.90
27200;DHT22;14714;48.106;11.546;2022-09-16T09:19:01;16.50;99.90
27200;DHT22;14714;48.106;11.546;2022-09-16T09:45:15;16.30;99.90
27200;DHT22;14714;48.106;11.546;2022-09-16T09:50:46;16.50;99.90
27200;DHT22;14714;48.106;11.546;2022-09-16T09:58:33;16.30;99.90
27200;DHT22;14714;48.106;11.546;2022-09-16T10:01:02;16.30;99.90
27200;DHT22;14714;48.106;11.546;2022-09-16T10:03:29;16.30;99.90
27200;DHT22;14714;48.106;11.546;2022-09-16T10:05:56;16.30;99.90
27200;DHT22;14714;48.106;11.546;2022-09-16T10:08:27;16.30;99.90
27200;DHT22;14714;48.106;11.546;2022-09-16T10:10:56;16.30;99.90
27200;DHT22;14714;48.106;11.546;2022-09-16T10:13:24;16.30;99.90
27200;DHT22;14714;48.106;11.546;2022-09-16T10:16:13;16.30;99.90
27200;DHT22;14714;48.106;11.546;2022-09-16T10:18:38;16.30;99.90
27200;DHT22;14714;48.106;11.546;2022-09-16T10:21:06;16.30;99.90
27200;DHT22;14714;48.106;11.546;2022-09-16T10:23:33;16.30;99.90
27200;DHT22;14714;48.106;11.546;2022-09-16T10:26:15;16.30;99.90
27200;DHT22;14714;48.106;11.546;2022-09-16T10:28:56;16.20;99.90
27200;DHT22;14714;48.106;11.546;2022-09-16T10:31:23;16.10;99.90
27200;DHT22;14714;48.106;11.546;2022-09-16T10:33:51;16.20;99.90
27200;DHT22;14714;48.106;11.546;2022-09-16T10:36:19;16.10;99.90
27200;DHT22;14714;48.106;11.546;2022-09-16T10:38:51;16.10;99.90
27200;DHT22;14714;48.106;11.546;2022-09-16T10:41:20;16.10;99.90
27200;DHT22;14714;48.106;11.546;2022-09-16T10:43:51;16.10;99.90
27200;DHT22;14714;48.106;11.546;2022-09-16T10:46:19;16.10;99.90
27200;DHT22;14714;48.106;11.546;2022-09-16T10:48:46;16.10;99.90
27200;DHT22;14714;48.106;11.546;2022-09-16T10:51:35;16.00;99.90
27200;DHT22;14714;48.106;11.546;2022-09-16T10:54:01;16.00;99.90
27200;DHT22;14714;48.106;11.546;2022-09-16T10:56:29;16.00;99.90
27200;DHT22;14714;48.106;11.546;2022-09-16T10:59:04;16.00;99.90
27200;DHT22;14714;48.106;11.546;2022-09-16T11:12:56;16.20;99.90
27200;DHT22;14714;48.106;11.546;2022-09-16T11:17:50;16.20;99.90
27200;DHT22;14714;48.106;11.546;2022-09-16T11:25:58;15.60;99.90
27200;DHT22;14714;48.106;11.546;2022-09-16T11:33:35;14.90;99.90
27200;DHT22;14714;48.106;11.546;2022-09-16T11:38:56;14.50;99.90
27200;DHT22;14714;48.106;11.546;2022-09-16T11:44:22;14.10;99.90
27200;DHT22;14714;48.106;11.546;2022-09-16T11:57:16;13.30;99.90
27200;DHT22;14714;48.106;11.546;2022-09-16T11:59:48;13.10;99.90
27200;DHT22;14714;48.106;11.546;2022-09-16T12:02:35;12.90;99.90
27200;DHT22;14714;48.106;11.546;2022-09-16T12:07:32;12.60;99.90
27200;DHT22;14714;48.106;11.546;2022-09-16T12:10:35;12.50;99.90
27200;DHT22;14714;48.106;11.546;2022-09-16T12:12:53;12.50;99.90
27200;DHT22;14714;48.106;11.546;2022-09-16T12:20:49;12.60;99.90
27200;DHT22;14714;48.106;11.546;2022-09-16T12:23:17;12.60;99.90
27200;DHT22;14714;48.106;11.546;2022-09-16T12:25:59;12.60;99.90
27200;DHT22;14714;48.106;11.546;2022-09-16T12:31:15;12.60;99.90
27200;DHT22;14714;48.106;11.546;2022-09-16T12:33:53;12.60;99.90
27200;DHT22;14714;48.106;11.546;2022-09-16T12:36:23;12.70;99.90
27200;DHT22;14714;48.106;11.546;2022-09-16T12:38:50;12.80;99.90
27200;DHT22;14714;48.106;11.546;2022-09-16T12:44:10;13.10;99.90
27200;DHT22;14714;48.106;11.546;2022-09-16T13:02:52;13.20;99.90
27200;DHT22;14714;48.106;11.546;2022-09-16T13:05:22;13.10;99.90
27200;DHT22;14714;48.106;11.546;2022-09-16T13:07:52;13.10;99.90
27200;DHT22;14714;48.106;11.546;2022-09-16T13:10:41;13.00;99.90
27200;DHT22;14714;48.106;11.546;2022-09-16T13:13:27;13.00;99.90
27200;DHT22;14714;48.106;11.546;2022-09-16T13:15:55;13.00;99.90
27200;DHT22;14714;48.106;11.546;2022-09-16T13:18:24;13.00;99.90
27200;DHT22;14714;48.106;11.546;2022-09-16T13:20:58;13.00;99.90
27200;DHT22;14714;48.106;11.546;2022-09-16T13:23:28;13.00;99.90
27200;DHT22;14714;48.106;11.546;2022-09-16T13:26:00;13.00;99.90
27200;DHT22;14714;48.106;11.546;2022-09-16T13:33:37;12.90;99.90
27200;DHT22;14714;48.106;11.546;2022-09-16T13:38:44;13.10;99.90
27200;DHT22;14714;48.106;11.546;2022-09-16T13:41:12;13.20;99.90
27200;DHT22;14714;48.106;11.546;2022-09-16T13:46:13;13.40;99.90
27200;DHT22;14714;48.106;11.546;2022-09-16T13:51:19;13.50;99.90
27200;DHT22;14714;48.106;11.546;2022-09-16T13:53:46;13.60;99.90
27200;DHT22;14714;48.106;11.546;2022-09-16T13:58:47;13.60;99.90
27200;DHT22;14714;48.106;11.546;2022-09-16T14:01:21;13.60;99.90
27200;DHT22;14714;48.106;11.546;2022-09-16T14:04:00;13.60;99.90
27200;DHT22;14714;48.106;11.546;2022-09-16T14:12:06;13.30;99.90
27200;DHT22;14714;48.106;11.546;2022-09-16T14:14:35;13.20;99.90
27200;DHT22;14714;48.106;11.546;2022-09-16T14:17:23;13.20;99.90
27200;DHT22;14714;48.106;11.546;2022-09-16T14:19:51;13.10;99.90
27200;DHT22;14714;48.106;11.546;2022-09-16T14:22:20;13.00;99.90
27200;DHT22;14714;48.106;11.546;2022-09-16T14:24:51;13.00;99.90
27200;DHT22;14714;48.106;11.546;2022-09-16T14:27:33;13.00;99.90
27200;DHT22;14714;48.106;11.546;2022-09-16T14:30:03;13.00;99.90
27200;DHT22;14714;48.106;11.546;2022-09-16T14:32:33;13.00;99.90
27200;DHT22;14714;48.106;11.546;2022-09-16T14:35:02;13.00;99.90
27200;DHT22;14714;48.106;11.546;2022-09-16T14:37:29;13.00;99.90
27200;DHT22;14714;48.106;11.546;2022-09-16T14:40:01;13.00;99.90
27200;DHT22;14714;48.106;11.546;2022-09-16T14:42:29;13.00;99.90
27200;DHT22;14714;48.106;11.546;2022-09-16T14:44:56;13.10;99.90
27200;DHT22;14714;48.106;11.546;2022-09-16T14:47:31;13.10;99.90
27200;DHT22;14714;48.106;11.546;2022-09-16T14:50:21;13.10;99.90
27200;DHT22;14714;48.106;11.546;2022-09-16T14:52:53;13.10;99.90
27200;DHT22;14714;48.106;11.546;2022-09-16T14:55:20;13.10;99.90
27200;DHT22;14714;48.106;11.546;2022-09-16T14:57:47;13.10;99.90
27200;DHT22;14714;48.106;11.546;2022-09-16T15:00:15;13.10;99.90
27200;DHT22;14714;48.106;11.546;2022-09-16T15:02:44;13.10;99.90
27200;DHT22;14714;48.106;11.546;2022-09-16T15:07:48;13.10;99.90
27200;DHT22;14714;48.106;11.546;2022-09-16T15:10:35;13.10;99.90
27200;DHT22;14714;48.106;11.546;2022-09-16T15:13:18;13.10;99.90
27200;DHT22;14714;48.106;11.546;2022-09-16T15:15:49;13.10;99.90
27200;DHT22;14714;48.106;11.546;2022-09-16T15:18:25;13.00;99.90
27200;DHT22;14714;48.106;11.546;2022-09-16T15:21:16;13.00;99.90
27200;DHT22;14714;48.106;11.546;2022-09-16T15:23:43;13.10;99.90
27200;DHT22;14714;48.106;11.546;2022-09-16T15:28:52;13.10;99.90
27200;DHT22;14714;48.106;11.546;2022-09-16T15:31:52;13.10;99.90
27200;DHT22;14714;48.106;11.546;2022-09-16T15:34:19;13.10;99.90
27200;DHT22;14714;48.106;11.546;2022-09-16T15:44:34;13.20;99.90
27200;DHT22;14714;48.106;11.546;2022-09-16T15:47:03;13.20;99.90
27200;DHT22;14714;48.106;11.546;2022-09-16T15:49:30;13.10;99.90
27200;DHT22;14714;48.106;11.546;2022-09-16T15:52:05;13.10;99.90
27200;DHT22;14714;48.106;11.546;2022-09-16T15:54:35;13.10;99.90
27200;DHT22;14714;48.106;11.546;2022-09-16T15:59:32;13.10;99.90
27200;DHT22;14714;48.106;11.546;2022-09-16T16:02:00;13.00;99.90
27200;DHT22;14714;48.106;11.546;2022-09-16T16:04:32;13.00;99.90
27200;DHT22;14714;48.106;11.546;2022-09-16T16:12:00;12.90;99.90
27200;DHT22;14714;48.106;11.546;2022-09-16T16:14:28;12.90;99.90
27200;DHT22;14714;48.106;11.546;2022-09-16T16:17:40;12.90;99.90
27200;DHT22;14714;48.106;11.546;2022-09-16T16:19:49;12.90;99.90
27200;DHT22;14714;48.106;11.546;2022-09-16T16:22:15;12.90;99.90
27200;DHT22;14714;48.106;11.546;2022-09-16T16:24:43;12.90;99.90
27200;DHT22;14714;48.106;11.546;2022-09-16T16:27:10;12.90;99.90
27200;DHT22;14714;48.106;11.546;2022-09-16T16:29:37;12.90;99.90
27200;DHT22;14714;48.106;11.546;2022-09-16T16:34:38;12.80;99.90
27200;DHT22;14714;48.106;11.546;2022-09-16T16:37:05;12.80;99.90
27200;DHT22;14714;48.106;11.546;2022-09-16T16:39:33;12.80;99.90
27200;DHT22;14714;48.106;11.546;2022-09-16T16:42:00;12.80;99.90
27200;DHT22;14714;48.106;11.546;2022-09-16T16:44:27;12.70;99.90
27200;DHT22;14714;48.106;11.546;2022-09-16T16:46:54;12.70;99.90
27200;DHT22;14714;48.106;11.546;2022-09-16T16:49:21;12.60;99.90
27200;DHT22;14714;48.106;11.546;2022-09-16T16:51:49;12.60;99.90
27200;DHT22;14714;48.106;11.546;2022-09-16T16:54:17;12.50;99.90
27200;DHT22;14714;48.106;11.546;2022-09-16T16:56:44;12.50;99.90
27200;DHT22;14714;48.106;11.546;2022-09-16T16:59:12;12.50;99.90
27200;DHT22;14714;48.106;11.546;2022-09-16T17:01:39;12.50;99.90
27200;DHT22;14714;48.106;11.546;2022-09-16T17:04:11;12.50;99.90
27200;DHT22;14714;48.106;11.546;2022-09-16T17:06:37;12.50;99.90
27200;DHT22;14714;48.106;11.546;2022-09-16T17:09:06;12.40;99.90
27200;DHT22;14714;48.106;11.546;2022-09-16T17:11:58;12.40;99.90
27200;DHT22;14714;48.106;11.546;2022-09-16T17:14:26;12.40;99.90
27200;DHT22;14714;48.106;11.546;2022-09-16T17:16:54;12.40;99.90
27200;DHT22;14714;48.106;11.546;2022-09-16T17:19:21;12.30;99.90
27200;DHT22;14714;48.106;11.546;2022-09-16T17:21:48;12.30;99.90
27200;DHT22;14714;48.106;11.546;2022-09-16T17:24:23;12.30;99.90
27200;DHT22;14714;48.106;11.546;2022-09-16T17:26:49;12.20;99.90
27200;DHT22;14714;48.106;11.546;2022-09-16T17:29:16;12.20;99.90
27200;DHT22;14714;48.106;11.546;2022-09-16T17:31:43;12.20;99.90
27200;DHT22;14714;48.106;11.546;2022-09-16T17:34:13;12.20;99.90
27200;DHT22;14714;48.106;11.546;2022-09-16T17:36:40;12.20;99.90
27200;DHT22;14714;48.106;11.546;2022-09-16T17:39:18;12.20;99.90
27200;DHT22;14714;48.106;11.546;2022-09-16T17:41:46;12.10;99.90
27200;DHT22;14714;48.106;11.546;2022-09-16T17:44:14;12.20;99.90
27200;DHT22;14714;48.106;11.546;2022-09-16T17:46:41;12.10;99.90
27200;DHT22;14714;48.106;11.546;2022-09-16T17:49:26;12.10;99.90
27200;DHT22;14714;48.106;11.546;2022-09-16T17:51:53;12.10;99.90
27200;DHT22;14714;48.106;11.546;2022-09-16T17:54:20;12.00;99.90
27200;DHT22;14714;48.106;11.546;2022-09-16T17:56:47;12.00;99.90
27200;DHT22;14714;48.106;11.546;2022-09-16T17:59:15;12.00;99.90
27200;DHT22;14714;48.106;11.546;2022-09-16T18:01:42;11.90;99.90
27200;DHT22;14714;48.106;11.546;2022-09-16T18:04:09;12.00;99.90
27200;DHT22;14714;48.106;11.546;2022-09-16T18:06:42;12.00;99.90
27200;DHT22;14714;48.106;11.546;2022-09-16T18:09:09;12.00;99.90
27200;DHT22;14714;48.106;11.546;2022-09-16T18:11:36;11.90;99.90
27200;DHT22;14714;48.106;11.546;2022-09-16T18:14:04;11.90;99.90
27200;DHT22;14714;48.106;11.546;2022-09-16T18:16:31;11.80;99.90
27200;DHT22;14714;48.106;11.546;2022-09-16T18:18:58;11.70;99.90
27200;DHT22;14714;48.106;11.546;2022-09-16T18:21:26;11.70;99.90
27200;DHT22;14714;48.106;11.546;2022-09-16T18:23:53;11.70;99.90
27200;DHT22;14714;48.106;11.546;2022-09-16T18:26:21;11.60;99.90
27200;DHT22;14714;48.106;11.546;2022-09-16T18:28:48;11.60;99.90
27200;DHT22;14714;48.106;11.546;2022-09-16T18:31:35;11.60;99.90
27200;DHT22;14714;48.106;11.546;2022-09-16T18:34:01;11.60;99.90
27200;DHT22;14714;48.106;11.546;2022-09-16T18:36:28;11.60;99.90
27200;DHT22;14714;48.106;11.546;2022-09-16T18:38:56;11.50;99.90
27200;DHT22;14714;48.106;11.546;2022-09-16T18:41:24;11.50;99.90
27200;DHT22;14714;48.106;11.546;2022-09-16T18:43:56;11.50;99.90
27200;DHT22;14714;48.106;11.546;2022-09-16T18:46:23;11.50;99.90
27200;DHT22;14714;48.106;11.546;2022-09-16T18:48:52;11.50;99.90
27200;DHT22;14714;48.106;11.546;2022-09-16T18:51:20;11.50;99.90
27200;DHT22;14714;48.106;11.546;2022-09-16T18:53:48;11.50;99.90
27200;DHT22;14714;48.106;11.546;2022-09-16T18:56:17;11.50;99.90
27200;DHT22;14714;48.106;11.546;2022-09-16T18:58:44;11.50;99.90
27200;DHT22;14714;48.106;11.546;2022-09-16T19:01:34;11.50;99.90